Time;durP1;ratioP1;P1;durP2;ratioP2;P2;SDS_P1;SDS_P2;PMS_P1;PMS_P2;Temp;Humidity;BMP_temperature;BMP_pressure;BME280_temperature;BME280_humidity;BME280_pressure;Samples;Min_cycle;Max_cycle;Signal;HPM_P1;HPM_P2
2021/03/14 00:01:06;;;;;;;8.75;2.80;;;-1.10;99.90;;;;;;5020072;28;20213;-76
2021/03/14 00:03:33;;;;;;;9.75;3.10;;;-1.10;99.90;;;;;;5037926;28;20209;-77
2021/03/14 00:05:59;;;;;;;12.43;2.90;;;-1.10;99.90;;;;;;5037112;28;20885;-77
2021/03/14 00:08:28;;;;;;;5.90;2.67;;;-1.00;99.90;;;;;;5037432;28;20197;-77
2021/03/14 00:11:00;;;;;;;10.02;3.10;;;-1.00;99.90;;;;;;5021699;28;20201;-77
2021/03/14 00:13:31;;;;;;;15.95;3.10;;;-0.90;99.90;;;;;;5034286;28;20201;-75
2021/03/14 00:15:57;;;;;;;8.32;2.80;;;-0.90;99.90;;;;;;5037266;28;21859;-76
2021/03/14 00:18:28;;;;;;;14.45;2.72;;;-0.90;99.90;;;;;;5035537;28;20573;-75
2021/03/14 00:20:54;;;;;;;12.57;3.05;;;-0.80;99.90;;;;;;5036854;28;20214;-77
2021/03/14 00:23:20;;;;;;;9.93;2.90;;;-0.80;99.90;;;;;;5037027;28;20263;-77
2021/03/14 00:25:45;;;;;;;7.80;2.85;;;-0.80;99.90;;;;;;5035421;28;20221;-76
2021/03/14 00:28:14;;;;;;;11.48;3.13;;;-0.70;99.90;;;;;;5029605;28;20268;-77
2021/03/14 00:30:40;;;;;;;12.75;2.78;;;-0.70;99.90;;;;;;5017968;28;20194;-77
2021/03/14 00:33:06;;;;;;;7.53;3.13;;;-0.60;99.90;;;;;;5015459;28;20198;-76
2021/03/14 00:35:31;;;;;;;9.57;3.10;;;-0.60;99.90;;;;;;5006318;28;20195;-76
2021/03/14 00:37:57;;;;;;;8.27;2.67;;;-0.50;99.90;;;;;;5008333;28;20277;-76
2021/03/14 00:40:26;;;;;;;16.80;3.38;;;-0.40;99.90;;;;;;4998762;28;20222;-77
2021/03/14 00:43:03;;;;;;;11.98;3.15;;;-0.40;99.90;;;;;;5017875;28;20226;-76
2021/03/14 00:45:31;;;;;;;11.75;3.05;;;-0.40;99.90;;;;;;5019169;28;20667;-76
2021/03/14 00:48:01;;;;;;;8.48;2.85;;;-0.40;99.90;;;;;;5017741;28;20226;-76
2021/03/14 00:50:27;;;;;;;7.72;2.67;;;-0.40;99.90;;;;;;5016918;28;20190;-77
2021/03/14 00:52:53;;;;;;;18.05;3.05;;;-0.50;99.90;;;;;;5017289;28;20198;-75
2021/03/14 00:55:19;;;;;;;12.60;2.95;;;-0.40;99.90;;;;;;5006967;28;20281;-78
2021/03/14 00:57:44;;;;;;;7.60;2.70;;;-0.40;99.90;;;;;;5018972;28;20194;-77
2021/03/14 01:00:11;;;;;;;8.07;2.40;;;-0.40;99.90;;;;;;5019773;28;20217;-77
2021/03/14 01:02:36;;;;;;;10.98;2.65;;;-0.40;99.90;;;;;;5001148;28;20281;-76
2021/03/14 01:05:03;;;;;;;7.38;2.42;;;-0.40;99.90;;;;;;5017614;28;20301;-76
2021/03/14 01:07:29;;;;;;;13.07;3.03;;;-0.30;99.90;;;;;;5018116;28;20252;-76
2021/03/14 01:09:54;;;;;;;8.43;2.72;;;-0.30;99.90;;;;;;5021182;28;20199;-77
2021/03/14 01:12:20;;;;;;;11.73;2.95;;;-0.30;99.90;;;;;;5021061;28;20195;-76
2021/03/14 01:14:46;;;;;;;13.32;2.80;;;-0.20;99.90;;;;;;5020203;28;20198;-77
2021/03/14 01:17:12;;;;;;;10.07;2.80;;;-0.20;99.90;;;;;;5008253;28;20241;-77
2021/03/14 01:19:37;;;;;;;13.18;2.63;;;-0.20;99.90;;;;;;5016060;28;20953;-75
2021/03/14 01:22:03;;;;;;;10.13;2.95;;;-0.20;99.90;;;;;;5016685;28;20200;-76
2021/03/14 01:24:29;;;;;;;6.97;2.80;;;-0.10;99.90;;;;;;5015534;28;20289;-76
2021/03/14 01:26:54;;;;;;;8.88;2.60;;;-0.10;99.90;;;;;;5017690;28;20210;-77
2021/03/14 01:29:20;;;;;;;8.90;2.67;;;0.00;99.90;;;;;;5034473;28;20279;-77
2021/03/14 01:31:46;;;;;;;6.82;2.50;;;0.00;99.90;;;;;;5041221;28;20282;-76
2021/03/14 01:34:11;;;;;;;5.68;2.63;;;0.10;99.90;;;;;;5025238;28;20586;-76
2021/03/14 01:36:37;;;;;;;5.30;2.20;;;0.10;99.90;;;;;;5040190;28;20328;-75
2021/03/14 01:39:03;;;;;;;5.88;2.17;;;0.10;99.90;;;;;;5039296;28;20224;-76
2021/03/14 01:41:29;;;;;;;3.80;2.20;;;0.10;99.90;;;;;;5039796;28;20636;-76
2021/03/14 01:43:56;;;;;;;6.05;2.38;;;0.20;99.90;;;;;;5017475;28;20244;-76
2021/03/14 01:46:22;;;;;;;7.93;2.70;;;0.20;99.90;;;;;;5036603;28;20226;-76
2021/03/14 01:48:48;;;;;;;9.07;2.50;;;0.10;99.90;;;;;;5037389;28;20198;-76
2021/03/14 01:51:14;;;;;;;7.82;2.38;;;0.10;99.90;;;;;;5025955;28;20193;-76
2021/03/14 01:53:40;;;;;;;9.43;2.78;;;0.10;99.90;;;;;;5038642;28;20216;-75
2021/03/14 01:56:06;;;;;;;6.95;2.97;;;0.00;99.90;;;;;;5039604;28;20561;-76
2021/03/14 01:58:34;;;;;;;7.63;2.45;;;0.00;99.90;;;;;;5037488;28;20198;-76
2021/03/14 02:01:00;;;;;;;5.88;2.42;;;0.00;99.90;;;;;;5035064;28;20190;-75
2021/03/14 02:03:26;;;;;;;6.15;2.50;;;-0.10;99.90;;;;;;5029326;28;20213;-76
2021/03/14 02:05:52;;;;;;;9.88;2.95;;;0.00;99.90;;;;;;5021001;28;20200;-76
2021/03/14 02:08:19;;;;;;;10.63;3.00;;;0.00;99.90;;;;;;5032430;28;20198;-76
2021/03/14 02:10:48;;;;;;;8.52;2.33;;;0.00;99.90;;;;;;5033669;28;21014;-76
2021/03/14 02:13:39;;;;;;;9.90;2.55;;;0.00;99.90;;;;;;5019863;28;20194;-76
2021/03/14 02:16:14;;;;;;;8.63;2.50;;;0.00;99.90;;;;;;5023912;28;20210;-76
2021/03/14 02:18:43;;;;;;;8.23;2.85;;;0.00;99.90;;;;;;5039757;28;20223;-76
2021/03/14 02:21:09;;;;;;;7.20;2.65;;;0.00;99.90;;;;;;5023203;28;20198;-77
2021/03/14 02:23:44;;;;;;;8.18;2.85;;;0.00;99.90;;;;;;5037202;28;20692;-76
2021/03/14 02:26:19;;;;;;;6.88;2.40;;;-0.10;99.90;;;;;;5036901;28;20184;-75
2021/03/14 02:28:47;;;;;;;8.13;2.45;;;0.00;99.90;;;;;;5020320;28;20221;-76
2021/03/14 02:31:16;;;;;;;7.28;2.50;;;0.00;99.90;;;;;;5039239;28;20212;-77
2021/03/14 02:33:43;;;;;;;11.05;2.50;;;-0.10;99.90;;;;;;5039094;28;20189;-77
2021/03/14 02:36:11;;;;;;;8.27;2.78;;;-0.10;99.90;;;;;;5037445;28;20676;-76
2021/03/14 02:38:42;;;;;;;6.70;2.83;;;-0.10;99.90;;;;;;5030172;28;20201;-76
2021/03/14 02:41:09;;;;;;;6.85;2.50;;;-0.10;99.90;;;;;;5040735;28;20217;-76
2021/03/14 02:43:36;;;;;;;6.75;2.80;;;-0.10;99.90;;;;;;5040269;28;20212;-76
2021/03/14 02:46:03;;;;;;;9.23;2.45;;;-0.10;99.90;;;;;;5022479;28;20236;-76
2021/03/14 02:48:29;;;;;;;7.70;3.20;;;-0.10;99.90;;;;;;5020538;28;20198;-77
2021/03/14 02:50:57;;;;;;;6.95;2.40;;;-0.10;99.90;;;;;;5037908;28;20228;-77
2021/03/14 02:53:24;;;;;;;5.72;2.55;;;-0.20;99.90;;;;;;5023915;28;20209;-76
2021/03/14 02:55:52;;;;;;;5.60;2.35;;;-0.10;99.90;;;;;;5036654;28;20280;-76
2021/03/14 02:58:19;;;;;;;10.57;2.70;;;-0.10;99.90;;;;;;5038335;28;20202;-76
2021/03/14 03:00:45;;;;;;;10.98;2.80;;;-0.10;99.90;;;;;;5038158;28;20209;-75
2021/03/14 03:03:12;;;;;;;3.80;2.15;;;-0.10;99.90;;;;;;5017052;28;20202;-75
2021/03/14 03:05:43;;;;;;;7.57;2.58;;;-0.10;99.90;;;;;;5036429;28;20200;-76
2021/03/14 03:08:10;;;;;;;5.35;2.20;;;-0.10;99.90;;;;;;5035444;28;20201;-76
2021/03/14 03:10:41;;;;;;;8.85;2.70;;;-0.10;99.90;;;;;;5013219;28;20657;-75
2021/03/14 03:13:08;;;;;;;6.43;2.58;;;-0.10;99.90;;;;;;5022669;28;20194;-75
2021/03/14 03:15:35;;;;;;;8.13;3.00;;;-0.10;99.90;;;;;;5037742;28;20272;-75
2021/03/14 03:18:02;;;;;;;7.25;2.65;;;-0.10;99.90;;;;;;5020832;28;20194;-76
2021/03/14 03:20:28;;;;;;;7.50;2.50;;;-0.10;99.90;;;;;;5035092;28;20190;-75
2021/03/14 03:22:55;;;;;;;6.72;2.30;;;-0.10;99.90;;;;;;5033843;28;20198;-76
2021/03/14 03:25:21;;;;;;;5.28;2.38;;;0.00;99.90;;;;;;5025975;28;20210;-75
2021/03/14 03:27:48;;;;;;;4.63;2.42;;;0.00;99.90;;;;;;5027969;28;20241;-75
2021/03/14 03:30:16;;;;;;;3.60;2.38;;;0.00;99.90;;;;;;5038419;28;20208;-75
2021/03/14 03:32:42;;;;;;;7.18;2.67;;;0.00;99.90;;;;;;5037873;28;20247;-76
2021/03/14 03:35:11;;;;;;;6.43;2.38;;;0.00;99.90;;;;;;5034084;28;20205;-75
2021/03/14 03:37:37;;;;;;;9.02;2.50;;;0.00;99.90;;;;;;5036787;28;20706;-76
2021/03/14 03:40:06;;;;;;;5.95;2.50;;;0.00;99.90;;;;;;5041753;28;20189;-75
2021/03/14 03:42:34;;;;;;;6.78;2.17;;;0.00;99.90;;;;;;5035374;28;20194;-75
2021/03/14 03:45:01;;;;;;;10.27;2.45;;;0.00;99.90;;;;;;5036309;28;20206;-75
2021/03/14 03:47:29;;;;;;;9.82;2.78;;;0.00;99.90;;;;;;5035562;28;20196;-75
2021/03/14 03:49:56;;;;;;;6.63;2.25;;;0.00;99.90;;;;;;5034963;28;20202;-77
2021/03/14 03:52:23;;;;;;;5.53;2.50;;;0.00;99.90;;;;;;5028532;28;20204;-76
2021/03/14 03:54:51;;;;;;;6.75;2.45;;;0.00;99.90;;;;;;5027722;28;20197;-75
2021/03/14 03:57:19;;;;;;;6.93;2.22;;;0.00;99.90;;;;;;5037030;28;20744;-77
2021/03/14 03:59:47;;;;;;;9.32;2.40;;;0.00;99.90;;;;;;5037758;28;20240;-76
2021/03/14 04:02:14;;;;;;;7.88;2.05;;;0.00;99.90;;;;;;5020843;28;20569;-75
2021/03/14 04:04:41;;;;;;;7.32;2.20;;;0.00;99.90;;;;;;5034661;28;20210;-75
2021/03/14 04:07:10;;;;;;;10.82;2.35;;;0.00;99.90;;;;;;5017225;28;20194;-76
2021/03/14 04:09:36;;;;;;;10.23;3.65;;;0.00;99.90;;;;;;5034705;28;20260;-77
2021/03/14 04:12:03;;;;;;;8.70;2.40;;;0.00;99.90;;;;;;5021351;28;20207;-76
2021/03/14 04:14:30;;;;;;;4.57;2.35;;;0.00;99.90;;;;;;5037405;28;20292;-75
2021/03/14 04:16:56;;;;;;;16.52;2.58;;;0.00;99.90;;;;;;5017777;28;20282;-76
2021/03/14 04:19:27;;;;;;;8.88;2.35;;;0.10;99.90;;;;;;5032760;28;20608;-76
2021/03/14 04:21:55;;;;;;;7.75;2.70;;;0.10;99.90;;;;;;5033662;28;20194;-76
2021/03/14 04:24:23;;;;;;;6.40;2.35;;;0.10;99.90;;;;;;5036319;28;20210;-76
2021/03/14 04:26:50;;;;;;;6.43;2.80;;;0.10;99.90;;;;;;5037511;28;20208;-77
2021/03/14 04:29:19;;;;;;;4.75;2.33;;;0.10;99.90;;;;;;5014421;28;20226;-77
2021/03/14 04:31:47;;;;;;;6.13;2.33;;;0.10;99.90;;;;;;5006691;28;20229;-76
2021/03/14 04:34:15;;;;;;;6.43;2.42;;;0.10;99.90;;;;;;5016632;28;20202;-76
2021/03/14 04:36:42;;;;;;;7.00;2.50;;;0.10;99.90;;;;;;5002211;28;20202;-76
2021/03/14 04:39:08;;;;;;;9.13;2.58;;;0.10;99.90;;;;;;5015317;28;20206;-75
2021/03/14 04:41:35;;;;;;;4.82;2.25;;;0.10;99.90;;;;;;4997900;28;20528;-76
2021/03/14 04:44:02;;;;;;;7.15;2.40;;;0.10;99.90;;;;;;5014340;28;20731;-75
2021/03/14 04:46:28;;;;;;;9.23;2.45;;;0.00;99.90;;;;;;5017229;28;20190;-76
2021/03/14 04:48:55;;;;;;;6.28;2.58;;;0.00;99.90;;;;;;5003992;28;20722;-76
2021/03/14 04:51:24;;;;;;;11.00;2.90;;;0.00;99.90;;;;;;5016848;28;20201;-77
2021/03/14 04:53:51;;;;;;;7.00;2.33;;;0.00;99.90;;;;;;5006601;28;20195;-75
2021/03/14 04:56:18;;;;;;;6.22;2.85;;;0.00;99.90;;;;;;5015550;28;20198;-76
2021/03/14 04:58:45;;;;;;;9.73;2.03;;;0.00;99.90;;;;;;5016243;28;20203;-76
2021/03/14 05:01:13;;;;;;;9.82;2.40;;;0.00;99.90;;;;;;5004194;28;20229;-78
2021/03/14 05:03:43;;;;;;;10.73;2.75;;;-0.10;99.90;;;;;;5013865;28;20286;-78
2021/03/14 05:06:10;;;;;;;8.10;2.67;;;-0.10;99.90;;;;;;5013567;28;20207;-76
2021/03/14 05:08:37;;;;;;;6.03;2.42;;;-0.10;99.90;;;;;;5006088;28;20202;-76
2021/03/14 05:11:04;;;;;;;7.22;2.30;;;-0.10;99.90;;;;;;5003840;28;20253;-75
2021/03/14 05:13:32;;;;;;;4.78;2.50;;;-0.10;99.90;;;;;;5018129;28;20217;-75
2021/03/14 05:15:59;;;;;;;6.18;2.75;;;-0.10;99.90;;;;;;5006634;28;20213;-76
2021/03/14 05:18:25;;;;;;;9.02;2.35;;;-0.10;99.90;;;;;;5016620;28;20203;-78
2021/03/14 05:20:51;;;;;;;3.33;2.22;;;-0.10;99.90;;;;;;4996500;28;20560;-76
2021/03/14 05:23:18;;;;;;;8.55;2.70;;;-0.10;99.90;;;;;;5017106;28;20260;-79
2021/03/14 05:25:44;;;;;;;8.48;2.45;;;0.00;99.90;;;;;;5015188;28;20649;-77
2021/03/14 05:28:13;;;;;;;7.00;2.22;;;0.00;99.90;;;;;;5022717;28;20230;-76
2021/03/14 05:30:39;;;;;;;10.18;2.72;;;0.00;99.90;;;;;;5034430;28;20294;-76
2021/03/14 05:33:05;;;;;;;6.85;2.40;;;0.00;99.90;;;;;;5020693;28;20831;-77
2021/03/14 05:35:32;;;;;;;7.35;2.60;;;-0.10;99.90;;;;;;5037531;28;20680;-76
2021/03/14 05:37:59;;;;;;;8.18;2.45;;;0.00;99.90;;;;;;5033949;28;20201;-77
2021/03/14 05:40:26;;;;;;;6.95;2.60;;;0.00;99.90;;;;;;5026023;28;20807;-77
2021/03/14 05:42:53;;;;;;;6.20;2.60;;;-0.10;99.90;;;;;;5020200;28;20225;-76
2021/03/14 05:45:20;;;;;;;9.18;2.83;;;-0.10;99.90;;;;;;5010856;28;20236;-77
2021/03/14 05:47:46;;;;;;;7.57;2.60;;;-0.10;99.90;;;;;;5019769;28;20202;-76
2021/03/14 05:50:14;;;;;;;9.65;2.42;;;-0.10;99.90;;;;;;5037616;28;20226;-76
2021/03/14 05:52:42;;;;;;;10.15;2.58;;;-0.10;99.90;;;;;;5019164;28;20198;-76
2021/03/14 05:55:17;;;;;;;7.63;2.20;;;0.00;99.90;;;;;;5022100;28;20198;-76
2021/03/14 05:57:56;;;;;;;9.07;2.20;;;-0.10;99.90;;;;;;5016535;28;20595;-76
2021/03/14 06:00:26;;;;;;;4.97;2.30;;;-0.10;99.90;;;;;;5034003;28;20303;-76
2021/03/14 06:02:54;;;;;;;6.35;2.63;;;-0.10;99.90;;;;;;5038166;28;20255;-76
2021/03/14 06:05:21;;;;;;;6.22;2.65;;;0.00;99.90;;;;;;5034961;28;20220;-76
2021/03/14 06:07:47;;;;;;;9.00;3.10;;;0.00;99.90;;;;;;5036866;28;20225;-75
2021/03/14 06:10:15;;;;;;;5.75;2.67;;;0.00;99.90;;;;;;5037231;28;20238;-76
2021/03/14 06:12:43;;;;;;;6.70;2.60;;;0.10;99.90;;;;;;5014910;28;20198;-76
2021/03/14 06:15:09;;;;;;;6.38;2.45;;;0.10;99.90;;;;;;5018384;28;20198;-76
2021/03/14 06:17:35;;;;;;;5.72;3.00;;;0.10;99.90;;;;;;5020402;28;21064;-76
2021/03/14 06:20:01;;;;;;;8.32;2.70;;;0.20;99.90;;;;;;5029021;28;20559;-76
2021/03/14 06:22:27;;;;;;;8.07;3.65;;;0.20;99.90;;;;;;5018650;28;20198;-77
2021/03/14 06:24:55;;;;;;;6.35;3.30;;;0.30;99.90;;;;;;5035939;28;20671;-75
2021/03/14 06:27:51;;;;;;;7.40;3.50;;;0.30;99.90;;;;;;5015113;28;20280;-76
2021/03/14 06:30:18;;;;;;;7.68;3.45;;;0.30;99.90;;;;;;5032617;28;20210;-76
2021/03/14 06:33:19;;;;;;;6.15;3.58;;;0.30;99.90;;;;;;5021903;28;20243;-76
2021/03/14 06:35:54;;;;;;;5.78;2.67;;;0.40;99.90;;;;;;5018053;28;20196;-76
2021/03/14 06:38:29;;;;;;;5.30;2.85;;;0.50;99.90;;;;;;5032320;28;20198;-77
2021/03/14 06:41:07;;;;;;;5.32;2.70;;;0.50;99.90;;;;;;5033254;28;20198;-79
2021/03/14 06:43:50;;;;;;;6.75;2.75;;;0.60;99.90;;;;;;5035992;28;20247;-77
2021/03/14 06:46:25;;;;;;;6.45;2.80;;;0.70;99.90;;;;;;5038259;28;20280;-77
2021/03/14 06:49:09;;;;;;;6.82;3.10;;;0.70;99.90;;;;;;5018048;28;20196;-77
2021/03/14 06:51:48;;;;;;;7.28;3.10;;;0.80;99.90;;;;;;5033518;28;20186;-77
2021/03/14 06:54:17;;;;;;;5.68;3.47;;;0.80;99.90;;;;;;5036467;28;20277;-77
2021/03/14 06:57:14;;;;;;;6.13;3.10;;;0.90;99.90;;;;;;5035522;28;20297;-76
2021/03/14 06:59:48;;;;;;;8.57;3.22;;;1.00;99.90;;;;;;5018259;28;20284;-79
2021/03/14 07:02:16;;;;;;;4.60;2.60;;;1.00;99.90;;;;;;5021551;28;20232;-78
2021/03/14 07:04:41;;;;;;;6.38;3.20;;;1.10;99.90;;;;;;5036105;28;20212;-76
2021/03/14 07:07:17;;;;;;;9.48;4.53;;;1.10;99.90;;;;;;5036656;28;20190;-77
2021/03/14 07:09:43;;;;;;;11.10;4.80;;;1.20;99.90;;;;;;5026603;28;20580;-77
2021/03/14 07:12:28;;;;;;;9.43;4.20;;;1.30;99.90;;;;;;5040199;28;20205;-76
2021/03/14 07:14:54;;;;;;;5.93;3.60;;;1.30;99.90;;;;;;5023870;28;20205;-76
2021/03/14 07:17:34;;;;;;;6.28;3.53;;;1.30;99.90;;;;;;5039155;28;20197;-77
2021/03/14 07:20:17;;;;;;;8.20;3.05;;;1.50;99.90;;;;;;5043709;28;20201;-75
2021/03/14 07:22:56;;;;;;;7.47;3.00;;;1.70;99.90;;;;;;5043654;28;20325;-76
2021/03/14 07:25:22;;;;;;;7.32;2.88;;;2.00;99.90;;;;;;5028921;28;20205;-75
2021/03/14 07:27:50;;;;;;;5.68;2.42;;;2.00;99.90;;;;;;5042607;28;20229;-76
2021/03/14 07:30:18;;;;;;;3.60;2.30;;;2.20;99.90;;;;;;5027823;28;20206;-76
2021/03/14 07:32:45;;;;;;;6.28;3.03;;;2.20;99.90;;;;;;5039778;28;20201;-75
2021/03/14 07:35:11;;;;;;;5.22;2.70;;;2.30;99.90;;;;;;5046888;28;20197;-77
2021/03/14 07:37:41;;;;;;;7.30;2.63;;;2.40;99.90;;;;;;5047338;28;20612;-75
2021/03/14 07:40:11;;;;;;;5.63;3.05;;;2.30;99.90;;;;;;5042599;28;20273;-77
2021/03/14 07:42:37;;;;;;;5.90;3.42;;;2.30;99.90;;;;;;5041303;28;20207;-75
2021/03/14 07:45:08;;;;;;;9.88;3.80;;;2.30;99.90;;;;;;5044411;28;20293;-75
2021/03/14 07:47:36;;;;;;;6.72;2.80;;;2.30;99.90;;;;;;5046890;28;20660;-76
2021/03/14 07:50:05;;;;;;;4.22;2.80;;;2.40;99.90;;;;;;5041636;28;20181;-77
2021/03/14 07:52:32;;;;;;;8.05;3.20;;;2.40;99.90;;;;;;5043871;28;20194;-77
2021/03/14 07:55:08;;;;;;;4.78;2.63;;;2.50;99.90;;;;;;5040454;28;20192;-75
2021/03/14 07:57:34;;;;;;;6.60;3.00;;;2.60;99.90;;;;;;5039922;28;20204;-77
2021/03/14 08:00:29;;;;;;;5.32;3.08;;;2.70;99.90;;;;;;5020299;28;20208;-76
2021/03/14 08:03:02;;;;;;;11.02;2.90;;;2.70;99.90;;;;;;5036623;28;20209;-81
2021/03/14 08:05:36;;;;;;;4.88;2.97;;;2.80;99.90;;;;;;5020243;28;21178;-77
2021/03/14 08:08:06;;;;;;;8.90;2.95;;;2.90;99.90;;;;;;5032701;28;20225;-77
2021/03/14 08:10:37;;;;;;;8.70;2.78;;;2.90;99.90;;;;;;5034015;28;20195;-78
2021/03/14 08:13:04;;;;;;;6.30;2.80;;;2.90;99.90;;;;;;5015757;28;20674;-77
2021/03/14 08:15:31;;;;;;;8.63;2.80;;;2.90;99.90;;;;;;5021736;28;20233;-78
2021/03/14 08:17:58;;;;;;;5.28;2.83;;;2.90;99.90;;;;;;5032580;28;20293;-77
2021/03/14 08:20:36;;;;;;;8.40;3.20;;;3.00;99.90;;;;;;5023273;28;20296;-78
2021/03/14 08:23:02;;;;;;;7.35;3.50;;;3.10;99.90;;;;;;5015324;28;20208;-77
2021/03/14 08:25:29;;;;;;;4.70;2.95;;;3.20;99.90;;;;;;5031555;28;20201;-77
2021/03/14 08:28:00;;;;;;;8.57;3.25;;;3.20;99.90;;;;;;5037297;28;20222;-79
2021/03/14 08:30:29;;;;;;;8.10;3.60;;;3.30;99.90;;;;;;5030777;28;20221;-78
2021/03/14 08:33:25;;;;;;;6.25;3.13;;;3.20;99.90;;;;;;5035892;28;20745;-80
2021/03/14 08:35:57;;;;;;;15.35;4.07;;;3.30;99.90;;;;;;5036422;28;20197;-78
2021/03/14 08:38:43;;;;;;;12.00;4.28;;;3.30;99.90;;;;;;5013288;28;20206;-79
2021/03/14 08:41:22;;;;;;;8.07;3.70;;;3.40;99.90;;;;;;5019499;28;20202;-78
2021/03/14 08:43:59;;;;;;;4.80;3.00;;;3.50;99.90;;;;;;5027869;28;20206;-78
2021/03/14 08:46:49;;;;;;;6.55;2.72;;;3.60;99.90;;;;;;5031894;28;20206;-80
2021/03/14 08:49:22;;;;;;;6.45;2.15;;;3.70;99.90;;;;;;5029303;28;21182;-79
2021/03/14 08:51:49;;;;;;;5.20;2.10;;;3.80;99.90;;;;;;5013276;28;20317;-78
2021/03/14 08:54:16;;;;;;;4.07;2.00;;;3.80;99.90;;;;;;5029912;28;20210;-79
2021/03/14 08:56:42;;;;;;;6.70;3.03;;;3.80;99.90;;;;;;5029885;28;20198;-79
2021/03/14 08:59:10;;;;;;;15.40;7.20;;;3.90;99.90;;;;;;5020885;28;20703;-80
2021/03/14 09:01:37;;;;;;;44.10;18.35;;;3.90;99.90;;;;;;5031791;28;20206;-80
2021/03/14 09:04:13;;;;;;;25.40;10.07;;;3.90;99.90;;;;;;5029027;28;20229;-79
2021/03/14 09:06:39;;;;;;;7.82;3.42;;;3.90;99.90;;;;;;5030226;28;20351;-78
2021/03/14 09:09:13;;;;;;;11.52;5.30;;;4.00;99.90;;;;;;5016052;28;20200;-78
2021/03/14 09:11:53;;;;;;;9.40;4.95;;;4.00;99.90;;;;;;5012111;28;20208;-80
2021/03/14 09:14:19;;;;;;;8.80;4.60;;;4.00;99.90;;;;;;5018349;28;20702;-81
2021/03/14 09:16:45;;;;;;;12.20;4.45;;;3.90;99.90;;;;;;5032823;28;20189;-81
2021/03/14 09:19:19;;;;;;;8.05;3.30;;;4.00;99.90;;;;;;5010132;28;20915;-81
2021/03/14 09:21:56;;;;;;;6.32;2.20;;;4.10;99.90;;;;;;5022418;28;20299;-79
2021/03/14 09:24:47;;;;;;;4.45;2.20;;;4.30;99.90;;;;;;5014639;28;20894;-80
2021/03/14 09:27:19;;;;;;;4.18;2.05;;;4.40;99.90;;;;;;5008759;28;20197;-78
2021/03/14 09:29:52;;;;;;;5.07;1.92;;;4.50;99.90;;;;;;5015639;28;20222;-78
2021/03/14 09:32:31;;;;;;;5.10;2.85;;;4.60;99.90;;;;;;5027894;28;20197;-80
2021/03/14 09:35:27;;;;;;;7.63;2.00;;;4.70;99.90;;;;;;5027223;28;20224;-78
2021/03/14 09:37:59;;;;;;;7.30;1.80;;;4.80;99.90;;;;;;5030770;28;20259;-76
2021/03/14 09:40:35;;;;;;;3.08;1.77;;;4.90;99.90;;;;;;5024425;28;20214;-77
2021/03/14 09:43:16;;;;;;;6.78;2.33;;;5.10;99.90;;;;;;5025381;28;20197;-78
2021/03/14 09:45:48;;;;;;;6.03;1.98;;;5.20;99.90;;;;;;5018678;28;20688;-79
2021/03/14 09:48:35;;;;;;;6.47;1.92;;;5.40;99.90;;;;;;5019289;28;20193;-78
2021/03/14 09:51:05;;;;;;;7.13;1.88;;;5.40;99.90;;;;;;5020557;28;20189;-76
2021/03/14 09:53:36;;;;;;;5.80;2.10;;;5.40;99.90;;;;;;5016963;28;20667;-79
2021/03/14 09:56:06;;;;;;;3.80;2.05;;;5.50;99.90;;;;;;5040802;28;20236;-80
2021/03/14 09:58:32;;;;;;;5.72;2.08;;;5.50;99.90;;;;;;5026321;28;20645;-81
2021/03/14 10:00:59;;;;;;;6.03;2.28;;;5.50;99.90;;;;;;5043236;28;21061;-79
2021/03/14 10:03:28;;;;;;;5.57;2.10;;;5.40;99.90;;;;;;5046290;28;20483;-83
2021/03/14 10:05:56;;;;;;;5.28;2.28;;;5.50;99.90;;;;;;5029113;28;20307;-80
2021/03/14 10:08:24;;;;;;;4.57;2.08;;;5.60;99.90;;;;;;5010499;28;20232;-79
2021/03/14 10:10:56;;;;;;;11.32;2.05;;;5.70;99.90;;;;;;5044547;28;20273;-79
2021/03/14 10:13:26;;;;;;;5.35;2.50;;;5.80;99.90;;;;;;5041073;28;20881;-78
2021/03/14 10:15:54;;;;;;;8.23;2.22;;;5.90;99.90;;;;;;5037182;28;20775;-79
2021/03/14 10:18:25;;;;;;;7.82;2.25;;;5.90;99.90;;;;;;5015638;28;20198;-76
2021/03/14 10:21:12;;;;;;;6.75;2.00;;;6.00;99.90;;;;;;5026597;28;20198;-76
2021/03/14 10:23:37;;;;;;;7.53;2.20;;;6.00;99.90;;;;;;5003515;28;20316;-77
2021/03/14 10:26:10;;;;;;;6.18;1.85;;;6.00;99.90;;;;;;5031173;28;20204;-79
2021/03/14 10:28:38;;;;;;;4.47;1.88;;;6.10;99.90;;;;;;5016252;28;20756;-76
2021/03/14 10:31:06;;;;;;;4.85;2.00;;;6.20;99.90;;;;;;5019074;28;20582;-76
2021/03/14 10:33:34;;;;;;;5.65;2.25;;;6.30;99.90;;;;;;5016515;28;20197;-77
2021/03/14 10:36:17;;;;;;;7.55;2.10;;;6.30;99.90;;;;;;5036386;28;20228;-75
2021/03/14 10:38:47;;;;;;;5.57;2.22;;;6.30;99.90;;;;;;5034687;28;20548;-77
2021/03/14 10:41:15;;;;;;;5.13;1.75;;;6.30;99.90;;;;;;5017277;28;20224;-76
2021/03/14 10:43:48;;;;;;;7.28;2.00;;;6.40;99.90;;;;;;5027997;28;20348;-77
2021/03/14 10:46:34;;;;;;;7.05;2.17;;;6.50;99.90;;;;;;5016483;28;20194;-76
2021/03/14 10:49:17;;;;;;;5.00;2.08;;;6.60;99.90;;;;;;5031400;28;20262;-77
2021/03/14 10:51:48;;;;;;;3.95;2.25;;;6.80;99.90;;;;;;5033400;28;20190;-76
2021/03/14 10:54:14;;;;;;;4.57;2.35;;;6.80;99.90;;;;;;5014273;28;20282;-76
2021/03/14 10:56:50;;;;;;;7.43;2.22;;;6.90;99.90;;;;;;5020444;28;20213;-75
2021/03/14 10:59:33;;;;;;;2.95;1.98;;;6.90;99.90;;;;;;5021802;28;20238;-76
2021/03/14 11:02:21;;;;;;;4.53;1.75;;;7.00;99.90;;;;;;5020143;28;20758;-75
2021/03/14 11:04:58;;;;;;;8.82;2.65;;;6.80;99.90;;;;;;5034898;28;20207;-76
2021/03/14 11:07:30;;;;;;;5.10;2.05;;;6.90;99.90;;;;;;5036191;28;20295;-77
2021/03/14 11:10:13;;;;;;;5.30;1.98;;;7.00;99.90;;;;;;5033604;28;20275;-77
2021/03/14 11:12:41;;;;;;;9.57;2.38;;;7.00;99.90;;;;;;5017618;28;20202;-78
2021/03/14 11:15:08;;;;;;;8.77;2.05;;;7.00;99.90;;;;;;5034210;28;20733;-76
2021/03/14 11:17:38;;;;;;;5.97;2.10;;;6.90;99.90;;;;;;5030284;28;20335;-76
2021/03/14 11:20:08;;;;;;;6.53;2.17;;;6.80;99.90;;;;;;5033764;28;20241;-75
2021/03/14 11:22:33;;;;;;;6.70;2.35;;;6.80;99.90;;;;;;5037920;28;20198;-76
2021/03/14 11:24:59;;;;;;;3.85;1.98;;;6.90;99.90;;;;;;5034153;28;20221;-78
2021/03/14 11:27:25;;;;;;;6.40;2.22;;;7.00;99.90;;;;;;5031095;28;20862;-79
2021/03/14 11:29:51;;;;;;;5.50;2.10;;;6.90;99.90;;;;;;5020991;28;20974;-75
2021/03/14 11:32:17;;;;;;;3.30;1.80;;;6.80;99.90;;;;;;5027806;28;20272;-76
2021/03/14 11:34:45;;;;;;;4.72;2.22;;;6.80;99.90;;;;;;5038645;28;20190;-76
2021/03/14 11:37:12;;;;;;;6.93;2.22;;;6.90;99.90;;;;;;5041183;28;20605;-76
2021/03/14 11:39:38;;;;;;;10.57;1.98;;;7.00;99.90;;;;;;5041957;28;20324;-76
2021/03/14 11:42:05;;;;;;;7.15;2.10;;;6.90;99.90;;;;;;5046414;28;20199;-76
2021/03/14 11:44:31;;;;;;;6.40;1.90;;;6.80;99.90;;;;;;5039214;28;20217;-78
2021/03/14 11:46:57;;;;;;;4.22;1.75;;;6.90;99.90;;;;;;5024616;28;20194;-75
2021/03/14 11:49:24;;;;;;;4.13;1.63;;;7.00;99.90;;;;;;5047612;28;20203;-77
2021/03/14 11:51:50;;;;;;;5.40;1.85;;;7.20;99.90;;;;;;5036930;28;20198;-78
2021/03/14 11:54:17;;;;;;;3.45;1.55;;;7.40;99.90;;;;;;5041787;28;20767;-77
2021/03/14 11:56:47;;;;;;;6.28;1.63;;;7.50;99.90;;;;;;5022657;28;20336;-78
2021/03/14 11:59:13;;;;;;;4.63;1.60;;;7.40;99.90;;;;;;5045739;28;20282;-79
2021/03/14 12:01:40;;;;;;;4.78;1.60;;;7.50;99.90;;;;;;5041048;28;20251;-76
2021/03/14 12:04:24;;;;;;;3.95;1.48;;;7.50;99.90;;;;;;5021045;28;20205;-80
2021/03/14 12:06:50;;;;;;;2.97;1.58;;;7.70;99.90;;;;;;5044813;28;20247;-78
2021/03/14 12:09:16;;;;;;;4.60;1.70;;;7.80;99.90;;;;;;5028009;28;20678;-77
2021/03/14 12:11:43;;;;;;;3.70;1.63;;;7.90;99.90;;;;;;5030163;28;20778;-76
2021/03/14 12:14:09;;;;;;;5.63;1.60;;;8.10;99.90;;;;;;5046770;28;20913;-76
2021/03/14 12:16:35;;;;;;;3.53;1.50;;;8.00;99.90;;;;;;5028694;28;20288;-77
2021/03/14 12:19:00;;;;;;;5.93;1.55;;;8.00;99.90;;;;;;5024091;28;21112;-80
2021/03/14 12:21:26;;;;;;;5.65;1.70;;;7.80;99.90;;;;;;5034868;28;20206;-78
2021/03/14 12:23:52;;;;;;;7.45;1.70;;;7.80;99.90;;;;;;5022019;28;20561;-80
2021/03/14 12:26:20;;;;;;;5.03;1.60;;;7.70;99.90;;;;;;5023089;28;20229;-79
2021/03/14 12:28:46;;;;;;;5.38;1.80;;;7.60;99.90;;;;;;5028612;28;20363;-79
2021/03/14 12:31:12;;;;;;;5.07;1.35;;;7.60;99.90;;;;;;5025385;28;20673;-79
2021/03/14 12:33:38;;;;;;;2.97;1.30;;;7.50;99.90;;;;;;5039671;28;20201;-78
2021/03/14 12:36:04;;;;;;;6.38;1.60;;;7.40;99.90;;;;;;5016319;28;20194;-77
2021/03/14 12:38:30;;;;;;;4.32;1.50;;;7.30;99.90;;;;;;5023434;28;20727;-79
2021/03/14 12:40:55;;;;;;;6.07;1.70;;;7.30;99.90;;;;;;5016189;28;20194;-79
2021/03/14 12:43:22;;;;;;;5.55;1.30;;;7.30;99.90;;;;;;5018189;28;20193;-77
2021/03/14 12:45:49;;;;;;;3.88;1.33;;;7.20;99.90;;;;;;5036610;28;20209;-78
2021/03/14 12:48:16;;;;;;;3.63;1.40;;;7.10;99.90;;;;;;5037270;28;20195;-78
2021/03/14 12:50:43;;;;;;;3.85;1.30;;;7.00;99.90;;;;;;5035036;28;20198;-78
2021/03/14 12:53:09;;;;;;;3.95;1.55;;;7.00;99.90;;;;;;5034058;28;20194;-79
2021/03/14 12:55:34;;;;;;;3.13;1.30;;;7.00;99.90;;;;;;5016344;28;20201;-77
2021/03/14 12:58:00;;;;;;;1.60;1.20;;;7.00;99.90;;;;;;5036112;28;20204;-78
2021/03/14 13:00:26;;;;;;;2.17;1.30;;;7.10;99.90;;;;;;5037021;28;20209;-78
2021/03/14 13:02:52;;;;;;;2.47;1.48;;;7.10;99.90;;;;;;5012363;28;20687;-78
2021/03/14 13:05:18;;;;;;;3.05;1.20;;;7.20;99.90;;;;;;5026656;28;20787;-77